Felda, Florida
Current Conditions -  °F | °C
As of 12:15 PM on Thursday 30 Oct 2014 (Local Time) from KIMM Reporting Station
Clear Clear  
Wind Chill: 88°   Ceiling: Unl
Heat Index: 90°   Visibility: 7mi
Dew Point: 66°   Wind: 5mph
Humidity: 49%   Direction: 140°SE
Pressure: 29.98"   Gusts: NA
Location:  26.54°N, 81.44°W
Report Text: KIMM 301615Z AUTO 14004KT 7SM CLR 31/19 A2998 RMK A01 P000
Loading
Personal Weather Stations






























Interactive Weather Map
Tropical Storm Tracking
New forecast layout! Learn more

10-Day Weather Forecast

Advertisements
Track Severe Weather on mobile